Time;durP1;ratioP1;P1;durP2;ratioP2;P2;SDS_P1;SDS_P2;PMS_P1;PMS_P2;Temp;Humidity;BMP_temperature;BMP_pressure;BME280_temperature;BME280_humidity;BME280_pressure;Samples;Min_cycle;Max_cycle;Signal;HPM_P1;HPM_P2
2022/11/19 00:02:09;;;;;;;22.10;10.82;;;10.60;70.20;;;;;;7397479;19;20028;-89
2022/11/19 00:04:40;;;;;;;20.55;9.77;;;10.50;70.20;;;;;;7396238;19;20014;-90
2022/11/19 00:07:09;;;;;;;24.40;10.13;;;10.50;70.10;;;;;;7396350;19;20054;-89
2022/11/19 00:09:37;;;;;;;26.95;10.73;;;10.50;70.00;;;;;;7398262;19;20029;-90
2022/11/19 00:14:48;;;;;;;28.92;10.52;;;10.50;70.00;;;;;;7392016;19;20006;-90
2022/11/19 00:17:17;;;;;;;24.45;10.35;;;10.50;70.10;;;;;;7389169;19;20078;-89
2022/11/19 00:19:48;;;;;;;25.30;10.18;;;10.50;70.20;;;;;;7387477;19;20117;-89
2022/11/19 00:22:17;;;;;;;31.98;11.88;;;10.40;70.00;;;;;;7386615;19;20019;-89
2022/11/19 00:24:45;;;;;;;30.08;11.90;;;10.40;69.80;;;;;;7386192;19;20029;-89
2022/11/19 00:27:14;;;;;;;28.25;11.63;;;10.40;70.10;;;;;;7407523;19;20855;-89
2022/11/19 00:29:42;;;;;;;30.00;11.52;;;10.40;70.40;;;;;;7386858;19;20066;-90
2022/11/19 00:32:11;;;;;;;31.20;11.73;;;10.30;70.10;;;;;;7387588;19;20066;-89
2022/11/19 00:34:40;;;;;;;27.83;11.63;;;10.30;70.00;;;;;;7385375;19;20014;-89
2022/11/19 00:37:11;;;;;;;32.20;10.75;;;10.30;70.10;;;;;;7380963;19;20453;-90
2022/11/19 00:39:40;;;;;;;29.85;11.50;;;10.30;71.00;;;;;;7381091;19;21779;-90
2022/11/19 00:42:08;;;;;;;23.42;11.55;;;10.30;70.30;;;;;;7404978;19;20035;-89
2022/11/19 00:44:37;;;;;;;26.42;11.02;;;10.30;70.10;;;;;;7384933;19;20028;-90
2022/11/19 00:47:06;;;;;;;28.08;11.00;;;10.30;70.10;;;;;;7384466;19;20054;-90
2022/11/19 00:49:35;;;;;;;21.63;10.20;;;10.30;70.30;;;;;;7387076;19;20010;-90
2022/11/19 00:52:04;;;;;;;25.73;10.35;;;10.30;70.10;;;;;;7390461;19;20014;-90
2022/11/19 00:54:35;;;;;;;18.55;10.05;;;10.30;70.10;;;;;;7386153;19;20022;-89
2022/11/19 00:57:04;;;;;;;22.40;9.63;;;10.30;70.10;;;;;;7408589;19;20022;-90
2022/11/19 00:59:33;;;;;;;25.50;10.32;;;10.30;70.30;;;;;;7403338;19;20024;-89
2022/11/19 01:02:02;;;;;;;25.45;10.52;;;10.30;70.50;;;;;;7408363;19;20007;-90
2022/11/19 01:04:30;;;;;;;28.48;8.80;;;10.30;70.50;;;;;;7400337;19;20034;-90
2022/11/19 01:06:59;;;;;;;29.25;9.32;;;10.30;71.10;;;;;;7400128;19;20027;-90
2022/11/19 01:09:28;;;;;;;23.60;9.73;;;10.30;70.40;;;;;;7398263;19;20036;-90
2022/11/19 01:11:59;;;;;;;21.60;8.15;;;10.30;70.10;;;;;;7421913;19;20041;-91
2022/11/19 01:14:28;;;;;;;18.85;8.80;;;10.30;70.10;;;;;;7393882;19;20019;-91
2022/11/19 01:16:56;;;;;;;26.40;8.95;;;10.30;70.10;;;;;;7395276;19;20014;-91
2022/11/19 01:19:25;;;;;;;16.20;8.55;;;10.30;69.70;;;;;;7398117;19;20015;-92
2022/11/19 01:21:54;;;;;;;22.70;9.15;;;10.20;70.00;;;;;;7394525;19;20019;-91
2022/11/19 01:24:22;;;;;;;18.05;8.50;;;10.20;70.10;;;;;;7394068;19;20035;-90
2022/11/19 01:26:51;;;;;;;26.75;8.45;;;10.20;69.90;;;;;;7418978;19;20019;-91
2022/11/19 01:29:22;;;;;;;24.50;7.88;;;10.20;69.70;;;;;;7392985;19;20059;-91
2022/11/19 01:31:51;;;;;;;21.33;8.45;;;10.20;69.70;;;;;;7392960;19;20088;-90
2022/11/19 01:34:20;;;;;;;22.65;8.27;;;10.20;70.50;;;;;;7393012;19;20036;-90
2022/11/19 01:36:48;;;;;;;23.15;8.60;;;10.20;69.80;;;;;;7393585;19;20011;-89
2022/11/19 01:39:18;;;;;;;21.52;8.23;;;10.10;69.90;;;;;;7390014;19;20094;-88
2022/11/19 01:41:47;;;;;;;22.83;7.82;;;10.10;69.90;;;;;;7414689;19;20055;-90
2022/11/19 01:44:45;;;;;;;19.50;7.40;;;10.10;69.90;;;;;;7397097;19;20019;-90
2022/11/19 01:47:16;;;;;;;17.02;7.57;;;10.10;69.80;;;;;;7397696;19;20015;-90
2022/11/19 01:49:45;;;;;;;;;;;10.00;70.60;;;;;;7397238;19;20018;-90
2022/11/19 01:52:14;;;;;;;21.83;7.20;;;10.00;70.30;;;;;;7402592;19;19946;-90
2022/11/19 01:54:47;;;;;;;15.23;7.25;;;9.90;71.20;;;;;;7402573;19;20022;-90
2022/11/19 01:57:19;;;;;;;21.33;7.80;;;9.90;70.80;;;;;;7412995;19;20018;-85
2022/11/19 01:59:51;;;;;;;18.27;7.05;;;9.90;70.80;;;;;;7426376;19;20011;-90
2022/11/19 02:02:23;;;;;;;17.40;6.55;;;9.80;70.80;;;;;;7405041;19;20031;-90
2022/11/19 02:04:52;;;;;;;15.18;6.70;;;9.90;70.90;;;;;;7401681;19;20028;-90
2022/11/19 02:07:27;;;;;;;20.00;7.03;;;9.90;70.50;;;;;;7401187;19;20018;-90
2022/11/19 02:09:56;;;;;;;25.35;7.40;;;9.90;70.30;;;;;;7400374;19;20038;-90
2022/11/19 02:12:34;;;;;;;22.58;6.97;;;9.90;70.20;;;;;;7407528;19;20022;-90
2022/11/19 02:15:17;;;;;;;18.35;7.07;;;9.90;70.20;;;;;;7429147;19;20023;-90
2022/11/19 02:18:08;;;;;;;15.68;6.25;;;9.90;70.20;;;;;;7414785;19;20021;-92
2022/11/19 02:20:57;;;;;;;13.00;6.35;;;9.90;70.20;;;;;;7411444;19;20009;-90
2022/11/19 02:24:07;;;;;;;15.93;6.70;;;9.90;70.00;;;;;;7413418;19;20010;-90
2022/11/19 02:26:59;;;;;;;16.02;6.75;;;9.90;69.80;;;;;;7414159;19;20022;-90
2022/11/19 02:29:57;;;;;;;18.75;6.95;;;9.90;69.70;;;;;;7411761;19;20006;-91
2022/11/19 02:32:32;;;;;;;14.85;6.20;;;9.80;70.00;;;;;;7412112;19;20010;-91
2022/11/19 02:35:11;;;;;;;24.95;7.15;;;9.70;70.20;;;;;;7410853;19;20006;-90
2022/11/19 02:37:46;;;;;;;17.67;6.72;;;9.70;70.40;;;;;;7408729;19;20018;-90
2022/11/19 02:40:20;;;;;;;13.73;6.88;;;9.60;70.50;;;;;;7409559;19;20055;-90
2022/11/19 02:42:55;;;;;;;21.50;6.35;;;9.60;71.30;;;;;;7409719;19;20027;-89
2022/11/19 02:45:30;;;;;;;16.52;6.47;;;9.60;70.60;;;;;;7406481;19;20002;-88
2022/11/19 02:48:07;;;;;;;23.05;6.32;;;9.70;71.40;;;;;;7429861;19;20373;-90
2022/11/19 02:50:41;;;;;;;21.55;6.80;;;9.70;70.50;;;;;;7410181;19;20034;-90
2022/11/19 02:53:10;;;;;;;10.88;5.85;;;9.70;70.40;;;;;;7409017;19;20050;-90
2022/11/19 02:56:09;;;;;;;17.40;6.78;;;9.80;70.20;;;;;;7404590;19;20843;-89
2022/11/19 03:06:39;;;;;;;17.52;6.43;;;9.80;69.40;;;;;;7400369;19;20028;-90
2022/11/19 03:09:07;;;;;;;14.60;5.97;;;9.80;69.60;;;;;;7419672;19;20031;-90
2022/11/19 03:11:36;;;;;;;13.30;5.65;;;9.80;69.60;;;;;;7397191;19;20019;-90
2022/11/19 03:17:14;;;;;;;16.85;6.43;;;9.80;69.50;;;;;;7398814;19;20062;-90
2022/11/19 03:19:48;;;;;;;11.15;5.72;;;9.80;69.60;;;;;;7398063;19;20066;-90
2022/11/19 03:22:23;;;;;;;14.15;6.57;;;9.80;69.60;;;;;;7399642;19;20006;-90
2022/11/19 03:24:58;;;;;;;23.35;6.50;;;9.70;69.70;;;;;;7399522;19;20042;-90
2022/11/19 03:27:29;;;;;;;14.05;6.00;;;9.70;69.80;;;;;;7396206;19;20019;-89
2022/11/19 03:30:00;;;;;;;13.77;5.90;;;9.80;69.70;;;;;;7422027;19;20014;-90
2022/11/19 03:32:34;;;;;;;11.52;5.93;;;9.80;69.50;;;;;;7402183;19;20010;-90
2022/11/19 03:35:08;;;;;;;11.50;5.47;;;9.80;69.60;;;;;;7392512;19;20644;-90
2022/11/19 03:37:40;;;;;;;16.40;6.55;;;9.80;69.70;;;;;;7383112;19;20022;-88
2022/11/19 03:40:10;;;;;;;;;;;9.90;69.80;;;;;;7383235;19;20015;-89
2022/11/19 03:42:40;;;;;;;12.82;4.97;;;9.90;69.90;;;;;;7385663;19;19921;-89
2022/11/19 03:45:15;;;;;;;13.90;5.20;;;9.90;70.00;;;;;;7427385;19;20006;-88
2022/11/19 03:47:46;;;;;;;13.88;5.22;;;9.90;69.90;;;;;;7409121;19;20006;-89
2022/11/19 03:50:23;;;;;;;14.85;5.13;;;9.90;70.10;;;;;;7392869;19;20014;-89
2022/11/19 03:52:52;;;;;;;13.77;4.97;;;10.00;70.50;;;;;;7389479;19;20010;-90
2022/11/19 03:55:22;;;;;;;11.70;5.30;;;10.00;70.50;;;;;;7392574;19;20018;-90
2022/11/19 03:57:52;;;;;;;11.77;5.18;;;10.00;70.50;;;;;;7398839;19;20045;-90
2022/11/19 04:00:21;;;;;;;14.05;4.55;;;10.00;70.60;;;;;;7404041;19;20015;-88
2022/11/19 04:02:49;;;;;;;18.30;5.03;;;10.00;70.90;;;;;;7419565;19;20022;-90
2022/11/19 04:05:21;;;;;;;11.57;5.20;;;10.00;71.10;;;;;;7398191;19;20024;-90
2022/11/19 04:07:49;;;;;;;18.02;5.20;;;10.10;70.90;;;;;;7398302;19;20010;-90
2022/11/19 04:10:18;;;;;;;15.40;5.35;;;10.10;70.90;;;;;;7397012;19;20010;-90
2022/11/19 04:12:47;;;;;;;14.30;4.70;;;10.10;71.10;;;;;;7401048;19;20006;-90
2022/11/19 04:15:17;;;;;;;15.00;5.07;;;10.20;71.20;;;;;;7410540;19;20014;-84
2022/11/19 04:17:46;;;;;;;13.70;5.40;;;10.20;71.10;;;;;;7415861;19;20019;-89
2022/11/19 04:20:15;;;;;;;17.70;5.18;;;10.30;71.40;;;;;;7396599;19;20025;-90
2022/11/19 04:22:46;;;;;;;12.48;4.78;;;10.30;71.40;;;;;;7400451;19;20039;-90
2022/11/19 04:25:15;;;;;;;11.38;4.57;;;10.40;71.40;;;;;;7401137;19;20031;-90
2022/11/19 04:27:43;;;;;;;11.20;4.57;;;10.40;71.60;;;;;;7399056;19;20010;-90
2022/11/19 04:30:13;;;;;;;12.00;4.95;;;10.40;71.40;;;;;;7416152;19;20028;-90
2022/11/19 04:32:42;;;;;;;13.30;4.93;;;10.40;71.30;;;;;;7393951;19;20024;-90
2022/11/19 04:35:12;;;;;;;10.65;4.97;;;10.40;71.50;;;;;;7394349;19;20629;-90
2022/11/19 04:37:41;;;;;;;14.80;4.90;;;10.40;71.80;;;;;;7394580;19;20014;-90
2022/11/19 04:40:14;;;;;;;14.27;4.60;;;10.40;71.70;;;;;;7395019;19;20027;-90
2022/11/19 04:42:43;;;;;;;14.05;5.15;;;10.40;71.90;;;;;;7393595;19;20018;-90
2022/11/19 04:45:13;;;;;;;10.02;4.40;;;10.40;72.00;;;;;;7416379;19;20014;-89
2022/11/19 04:47:41;;;;;;;11.23;4.45;;;10.50;72.10;;;;;;7393457;19;20091;-90
2022/11/19 04:50:11;;;;;;;15.55;4.70;;;10.50;72.20;;;;;;7399222;19;20032;-90
2022/11/19 04:52:40;;;;;;;16.98;5.00;;;10.50;72.20;;;;;;7398349;19;20028;-90
2022/11/19 04:55:12;;;;;;;7.70;4.22;;;10.50;72.20;;;;;;7398855;19;20021;-90
2022/11/19 04:57:41;;;;;;;17.83;4.82;;;10.60;72.50;;;;;;7397593;19;20019;-89
2022/11/19 05:00:11;;;;;;;17.45;4.57;;;10.60;72.40;;;;;;7417892;19;20038;-89
2022/11/19 05:02:40;;;;;;;13.93;4.88;;;10.60;72.50;;;;;;7398308;19;20086;-90
2022/11/19 05:05:10;;;;;;;10.80;4.75;;;10.60;72.60;;;;;;7405997;19;20028;-90
2022/11/19 05:07:38;;;;;;;12.80;4.50;;;10.60;72.90;;;;;;7409248;19;20018;-89
2022/11/19 05:10:08;;;;;;;12.43;4.82;;;10.60;73.10;;;;;;7405848;19;20030;-89
2022/11/19 05:12:39;;;;;;;11.98;4.70;;;10.60;73.20;;;;;;7399076;19;19995;-89
2022/11/19 05:15:09;;;;;;;17.55;5.20;;;10.70;73.20;;;;;;7424781;19;20024;-89
2022/11/19 05:17:38;;;;;;;15.30;4.97;;;10.70;73.10;;;;;;7401185;19;20022;-90
2022/11/19 05:20:08;;;;;;;13.38;4.93;;;10.70;72.90;;;;;;7395990;19;20011;-89
2022/11/19 05:22:37;;;;;;;14.48;5.72;;;10.60;73.10;;;;;;7394389;19;20058;-89
2022/11/19 05:25:06;;;;;;;7.90;4.72;;;10.60;73.20;;;;;;7399139;19;20010;-89
2022/11/19 05:27:35;;;;;;;19.25;5.53;;;10.60;73.50;;;;;;7398594;19;20098;-89
2022/11/19 05:30:07;;;;;;;14.93;5.97;;;10.70;73.90;;;;;;7418540;19;20031;-90
2022/11/19 05:32:36;;;;;;;12.82;5.57;;;10.70;74.00;;;;;;7396269;19;20084;-89
2022/11/19 05:35:05;;;;;;;13.07;5.28;;;10.70;73.90;;;;;;7400380;19;20017;-89
2022/11/19 05:37:34;;;;;;;14.82;5.97;;;10.70;74.00;;;;;;7402937;19;20018;-89
2022/11/19 05:40:04;;;;;;;11.20;5.20;;;10.70;74.30;;;;;;7391704;19;20078;-89
2022/11/19 05:42:32;;;;;;;13.40;5.35;;;10.70;74.40;;;;;;7391244;19;20499;-89
2022/11/19 05:45:01;;;;;;;11.25;4.90;;;10.70;74.40;;;;;;7415715;19;20054;-89
2022/11/19 05:47:32;;;;;;;13.60;5.40;;;10.70;74.40;;;;;;7389415;19;20015;-89
2022/11/19 05:50:01;;;;;;;10.20;4.78;;;10.70;74.50;;;;;;7392998;19;20022;-89
2022/11/19 05:52:30;;;;;;;13.52;4.90;;;10.70;74.70;;;;;;7390585;19;20019;-89
2022/11/19 05:54:58;;;;;;;12.82;4.72;;;10.70;74.80;;;;;;7390976;19;20079;-89
2022/11/19 05:57:27;;;;;;;12.32;4.65;;;10.70;74.80;;;;;;7389122;19;20022;-89
2022/11/19 05:59:56;;;;;;;14.73;4.97;;;10.70;74.80;;;;;;7418548;19;20327;-90
2022/11/19 06:02:25;;;;;;;27.45;14.05;;;10.70;74.80;;;;;;7398145;19;20022;-90
2022/11/19 06:04:56;;;;;;;13.63;5.38;;;10.70;74.80;;;;;;7403756;19;20091;-90
2022/11/19 06:07:25;;;;;;;17.52;6.00;;;10.70;74.80;;;;;;7399791;19;20045;-90
2022/11/19 06:09:53;;;;;;;15.25;5.40;;;10.60;74.80;;;;;;7396446;19;20014;-90
2022/11/19 06:12:22;;;;;;;15.32;5.20;;;10.60;74.80;;;;;;7398465;19;20029;-89
2022/11/19 06:14:51;;;;;;;17.50;5.03;;;10.50;74.80;;;;;;7426025;19;20029;-91
2022/11/19 06:17:19;;;;;;;11.45;4.82;;;10.50;74.80;;;;;;7403254;19;20030;-91
2022/11/19 06:19:48;;;;;;;15.82;4.93;;;10.40;75.60;;;;;;7404222;19;20498;-91
2022/11/19 06:22:19;;;;;;;12.20;4.95;;;10.50;74.90;;;;;;7402755;19;20011;-91
2022/11/19 06:24:48;;;;;;;16.50;5.28;;;10.40;74.80;;;;;;7404367;19;20018;-90
2022/11/19 06:27:17;;;;;;;10.77;4.82;;;10.40;74.60;;;;;;7405144;19;20015;-87
2022/11/19 06:29:46;;;;;;;15.10;5.45;;;10.40;74.50;;;;;;7432208;19;20010;-89
2022/11/19 06:32:14;;;;;;;9.52;5.15;;;10.40;74.50;;;;;;7412051;19;20018;-90
2022/11/19 06:34:43;;;;;;;9.95;4.53;;;10.40;74.50;;;;;;7397382;19;20430;-89
2022/11/19 06:37:12;;;;;;;13.10;4.82;;;10.40;74.70;;;;;;7389370;19;20055;-90
2022/11/19 06:39:43;;;;;;;22.25;5.38;;;10.40;74.50;;;;;;7389570;19;20019;-90
2022/11/19 06:44:53;;;;;;;12.07;4.68;;;10.50;74.70;;;;;;7389688;19;19911;-90
2022/11/19 06:47:21;;;;;;;20.52;5.47;;;10.40;74.10;;;;;;7396096;19;20496;-90
2022/11/19 06:49:50;;;;;;;13.48;5.25;;;10.40;74.20;;;;;;7394464;19;20025;-89
2022/11/19 06:52:19;;;;;;;16.65;5.47;;;10.40;74.70;;;;;;7398663;19;20015;-90
2022/11/19 06:54:51;;;;;;;19.08;5.00;;;10.40;74.90;;;;;;7398803;19;20010;-89
2022/11/19 06:57:19;;;;;;;19.02;5.03;;;10.40;74.80;;;;;;7397484;19;20138;-88
2022/11/19 06:59:48;;;;;;;24.80;5.60;;;10.40;74.90;;;;;;7419528;19;20014;-90
2022/11/19 07:02:17;;;;;;;14.00;5.28;;;10.30;74.60;;;;;;7397102;19;20011;-89
2022/11/19 07:04:46;;;;;;;18.05;5.70;;;10.30;74.70;;;;;;7413044;19;20014;-89
2022/11/19 07:07:14;;;;;;;17.15;4.97;;;10.30;74.80;;;;;;7407532;19;20010;-90
2022/11/19 07:09:43;;;;;;;18.65;6.20;;;10.20;75.00;;;;;;7411263;19;20003;-90
2022/11/19 07:12:14;;;;;;;16.05;5.15;;;10.20;75.50;;;;;;7433676;19;21430;-91
2022/11/19 07:14:43;;;;;;;15.15;5.03;;;10.20;75.60;;;;;;7408583;19;20010;-91
2022/11/19 07:17:12;;;;;;;14.30;5.18;;;10.20;75.60;;;;;;7407096;19;20018;-90
2022/11/19 07:19:41;;;;;;;19.70;5.50;;;10.20;75.70;;;;;;7405259;19;20010;-90
2022/11/19 07:22:09;;;;;;;14.48;5.53;;;10.20;75.50;;;;;;7404549;19;20030;-90
2022/11/19 07:24:38;;;;;;;23.92;5.93;;;10.20;75.30;;;;;;7404686;19;20006;-89
2022/11/19 07:27:07;;;;;;;11.55;5.68;;;10.20;75.30;;;;;;7422515;19;20007;-90
2022/11/19 07:29:38;;;;;;;16.70;5.40;;;10.20;76.30;;;;;;7402657;19;20018;-91
2022/11/19 07:32:07;;;;;;;14.25;5.82;;;10.20;75.60;;;;;;7409987;19;20038;-90
2022/11/19 07:34:36;;;;;;;23.25;7.93;;;10.20;75.60;;;;;;7377220;19;20021;-89
2022/11/19 07:37:04;;;;;;;128.18;32.00;;;10.20;75.40;;;;;;7393533;19;19995;-89
2022/11/19 07:39:33;;;;;;;140.07;34.95;;;10.30;75.40;;;;;;7313223;19;20013;-84
2022/11/19 07:44:46;;;;;;;58.38;15.52;;;10.30;75.10;;;;;;7283923;19;20011;-82
2022/11/19 07:47:14;;;;;;;78.97;25.27;;;10.30;75.10;;;;;;7408785;19;20010;-90
2022/11/19 07:49:43;;;;;;;43.00;14.43;;;10.30;75.20;;;;;;7405709;19;20013;-90
2022/11/19 07:52:12;;;;;;;49.30;16.52;;;10.30;75.10;;;;;;7406989;19;20007;-89
2022/11/19 07:54:40;;;;;;;41.15;15.98;;;10.30;75.20;;;;;;7406831;19;20014;-88
2022/11/19 07:57:10;;;;;;;40.28;15.85;;;10.30;75.40;;;;;;7425946;19;20023;-89
2022/11/19 07:59:39;;;;;;;48.90;18.30;;;10.30;75.30;;;;;;7397765;19;20423;-89
2022/11/19 08:02:12;;;;;;;47.78;21.17;;;10.30;75.40;;;;;;7404792;19;20014;-90
2022/11/19 08:04:41;;;;;;;36.00;14.93;;;10.30;75.50;;;;;;7407834;19;20014;-90
2022/11/19 08:07:10;;;;;;;48.28;18.63;;;10.40;75.60;;;;;;7404116;19;20030;-92
2022/11/19 08:09:39;;;;;;;45.45;18.85;;;10.40;75.60;;;;;;7401657;19;20014;-91
2022/11/19 08:12:09;;;;;;;34.65;16.42;;;10.40;75.60;;;;;;7421560;19;20032;-90
2022/11/19 08:14:38;;;;;;;30.05;14.40;;;10.50;75.60;;;;;;7394039;19;20014;-88
2022/11/19 08:19:50;;;;;;;22.13;8.98;;;10.60;75.50;;;;;;7399710;19;20006;-90
2022/11/19 08:22:19;;;;;;;201.85;13.52;;;10.60;75.50;;;;;;7395988;19;20026;-89
2022/11/19 08:24:48;;;;;;;23.58;6.15;;;10.60;75.50;;;;;;7396247;19;20046;-90
2022/11/19 08:27:17;;;;;;;17.33;5.70;;;10.60;75.80;;;;;;7403064;19;20027;-83
2022/11/19 08:29:46;;;;;;;18.70;6.40;;;10.50;75.90;;;;;;7421295;19;20058;-90
2022/11/19 08:32:17;;;;;;;16.90;6.70;;;10.40;76.00;;;;;;7395923;19;20019;-90
2022/11/19 08:34:45;;;;;;;16.55;7.32;;;10.50;76.30;;;;;;7397534;19;20015;-90
2022/11/19 08:37:15;;;;;;;18.73;7.65;;;10.50;76.30;;;;;;7399197;19;20014;-91
2022/11/19 08:39:43;;;;;;;24.33;7.22;;;10.60;76.60;;;;;;7396609;19;20011;-91
2022/11/19 08:44:54;;;;;;;20.10;6.05;;;10.80;76.70;;;;;;7392717;19;20025;-91
2022/11/19 08:47:25;;;;;;;15.88;6.32;;;10.80;76.90;;;;;;7396460;19;20019;-91
2022/11/19 08:49:53;;;;;;;;;;;10.90;77.60;;;;;;7397213;19;20027;-91
2022/11/19 08:52:22;;;;;;;20.98;6.40;;;11.00;76.60;;;;;;7400617;19;20193;-91
2022/11/19 08:54:52;;;;;;;14.43;6.15;;;11.00;76.30;;;;;;7398328;19;20007;-91
2022/11/19 08:57:21;;;;;;;17.48;5.97;;;11.00;76.30;;;;;;7394538;19;20608;-90
2022/11/19 08:59:50;;;;;;;31.00;9.13;;;11.10;76.30;;;;;;7414323;19;20023;-91
2022/11/19 09:02:19;;;;;;;47.97;13.43;;;11.10;76.20;;;;;;7386820;19;20014;-90
2022/11/19 09:04:51;;;;;;;46.38;12.65;;;11.20;76.40;;;;;;7390260;19;20012;-90
2022/11/19 09:07:19;;;;;;;33.58;9.50;;;11.20;76.40;;;;;;7383138;19;20018;-89
2022/11/19 09:09:48;;;;;;;30.25;8.43;;;11.20;76.30;;;;;;7379769;19;20030;-89
2022/11/19 09:12:17;;;;;;;57.05;15.23;;;11.30;76.50;;;;;;7381466;19;20018;-88
2022/11/19 09:14:46;;;;;;;66.68;15.73;;;11.30;76.60;;;;;;7403330;19;20018;-89
2022/11/19 09:17:15;;;;;;;28.17;9.10;;;11.40;76.60;;;;;;7400793;19;20025;-88
2022/11/19 09:19:44;;;;;;;21.92;7.75;;;11.30;76.50;;;;;;7400756;19;20010;-90
2022/11/19 09:22:15;;;;;;;29.20;9.05;;;11.30;76.90;;;;;;7395460;19;20489;-89
2022/11/19 09:24:44;;;;;;;46.70;12.25;;;11.30;77.10;;;;;;7394145;19;20013;-90
2022/11/19 09:27:13;;;;;;;39.88;12.15;;;11.40;77.20;;;;;;7414273;19;20022;-90
2022/11/19 09:29:41;;;;;;;53.10;14.00;;;11.40;77.30;;;;;;7386273;19;20034;-90
2022/11/19 09:32:10;;;;;;;36.30;11.48;;;11.50;77.40;;;;;;7384020;19;20032;-90
2022/11/19 09:34:39;;;;;;;36.67;10.18;;;11.50;77.50;;;;;;7380929;19;20018;-90
2022/11/19 09:37:08;;;;;;;37.08;10.70;;;11.60;77.50;;;;;;7381572;19;20018;-90
2022/11/19 09:39:40;;;;;;;42.60;11.98;;;11.60;77.50;;;;;;7379413;19;20025;-90
2022/11/19 09:42:17;;;;;;;22.48;7.38;;;11.70;77.50;;;;;;7398675;19;20018;-90
2022/11/19 09:45:12;;;;;;;27.25;7.30;;;11.70;77.40;;;;;;7378305;19;20031;-89
2022/11/19 09:48:05;;;;;;;21.00;6.75;;;11.70;77.50;;;;;;7380093;19;20024;-89
2022/11/19 09:50:44;;;;;;;18.88;7.07;;;11.70;77.50;;;;;;7375451;19;20015;-89
2022/11/19 09:53:19;;;;;;;20.50;6.85;;;11.80;77.60;;;;;;7377903;19;20026;-89
2022/11/19 09:55:54;;;;;;;20.83;7.53;;;11.70;77.80;;;;;;7382811;19;20014;-89
2022/11/19 09:58:27;;;;;;;28.42;7.50;;;11.70;77.90;;;;;;7383178;19;20058;-89
2022/11/19 10:00:56;;;;;;;19.48;5.43;;;11.70;77.70;;;;;;7382782;19;20330;-89
2022/11/19 10:03:27;;;;;;;19.20;5.15;;;11.70;77.70;;;;;;7388882;19;20015;-88
2022/11/19 10:06:10;;;;;;;14.43;5.60;;;11.70;78.00;;;;;;7409815;19;20054;-89
2022/11/19 10:08:51;;;;;;;21.75;5.30;;;11.70;78.30;;;;;;7391078;19;20099;-89
2022/11/19 10:11:34;;;;;;;15.65;5.32;;;11.70;78.20;;;;;;7387478;19;20028;-89
2022/11/19 10:14:18;;;;;;;12.40;5.15;;;11.60;78.30;;;;;;7386363;19;20010;-89
2022/11/19 10:16:58;;;;;;;19.15;6.05;;;11.60;78.30;;;;;;7387669;19;20056;-89
2022/11/19 10:19:44;;;;;;;20.40;7.00;;;11.70;78.80;;;;;;7387496;19;20081;-89
2022/11/19 10:22:18;;;;;;;25.85;5.78;;;11.80;78.00;;;;;;7385080;19;20010;-89
2022/11/19 10:24:58;;;;;;;15.57;4.85;;;11.90;77.80;;;;;;7381537;19;20476;-89
2022/11/19 10:27:33;;;;;;;16.40;5.35;;;11.90;77.60;;;;;;7385975;19;20030;-89
2022/11/19 10:30:08;;;;;;;14.07;4.75;;;11.90;77.60;;;;;;7407242;19;20405;-90
2022/11/19 10:32:41;;;;;;;15.65;4.72;;;11.90;77.70;;;;;;7383195;19;20010;-90
2022/11/19 10:35:18;;;;;;;9.32;4.40;;;12.00;77.90;;;;;;7383749;19;20492;-90
2022/11/19 10:37:58;;;;;;;12.20;5.55;;;12.00;78.10;;;;;;7384881;19;20776;-90
2022/11/19 10:40:31;;;;;;;18.75;5.53;;;11.90;79.40;;;;;;7390838;19;20021;-90
2022/11/19 10:43:15;;;;;;;9.15;3.97;;;12.00;79.70;;;;;;7406342;19;20007;-88
2022/11/19 10:45:44;;;;;;;15.98;5.30;;;11.90;77.70;;;;;;7397827;19;20028;-88
2022/11/19 10:48:21;;;;;;;14.13;4.43;;;12.00;77.30;;;;;;7424542;19;20010;-89
2022/11/19 10:50:50;;;;;;;17.13;5.57;;;12.00;77.40;;;;;;7406573;19;20018;-89
2022/11/19 10:53:24;;;;;;;14.57;3.75;;;12.00;77.40;;;;;;7403303;19;20014;-89
2022/11/19 10:55:56;;;;;;;12.38;4.00;;;11.90;77.30;;;;;;7401969;19;20022;-90
2022/11/19 10:58:31;;;;;;;14.30;4.05;;;11.90;77.70;;;;;;7409132;19;20002;-89
2022/11/19 11:01:03;;;;;;;9.55;3.45;;;11.80;78.00;;;;;;7410848;19;20003;-90
2022/11/19 11:03:34;;;;;;;;;;;11.90;77.80;;;;;;7411832;19;20017;-89
2022/11/19 11:06:05;;;;;;;11.85;3.20;;;11.90;77.50;;;;;;7428758;19;19910;-91
2022/11/19 11:08:33;;;;;;;;;;;11.90;78.10;;;;;;7406360;19;20022;-91
2022/11/19 11:11:03;;;;;;;12.50;3.28;;;12.00;77.60;;;;;;7407357;19;19910;-90
2022/11/19 11:16:25;;;;;;;8.35;2.50;;;12.10;77.30;;;;;;7403548;19;20077;-90
2022/11/19 11:18:55;;;;;;;8.75;3.15;;;12.10;76.20;;;;;;7405865;19;20010;-90
2022/11/19 11:21:34;;;;;;;6.55;2.35;;;12.20;76.30;;;;;;7405113;19;20018;-90
2022/11/19 11:24:04;;;;;;;7.15;2.90;;;12.10;75.20;;;;;;7424037;19;20042;-90
2022/11/19 11:26:36;;;;;;;9.68;3.20;;;12.40;75.10;;;;;;7402916;19;20018;-91
2022/11/19 11:29:26;;;;;;;13.75;3.10;;;12.50;74.40;;;;;;7405829;19;20018;-91
2022/11/19 11:31:55;;;;;;;9.70;3.15;;;12.50;73.80;;;;;;7406525;19;20007;-91
2022/11/19 11:34:35;;;;;;;9.27;2.58;;;12.70;73.80;;;;;;7407951;19;20102;-91
2022/11/19 11:37:07;;;;;;;10.30;2.83;;;12.60;72.90;;;;;;7408961;19;20010;-91
2022/11/19 11:39:38;;;;;;;9.85;2.28;;;12.50;73.70;;;;;;7409511;19;20068;-90
2022/11/19 11:42:11;;;;;;;4.63;2.25;;;12.60;73.20;;;;;;7430895;19;20018;-91
2022/11/19 11:44:52;;;;;;;8.65;2.63;;;12.70;73.00;;;;;;7404701;19;20002;-90
2022/11/19 11:47:22;;;;;;;13.70;3.10;;;12.60;73.10;;;;;;7409655;19;20022;-90
2022/11/19 11:49:59;;;;;;;8.63;2.97;;;12.70;72.80;;;;;;7408774;19;20009;-90
2022/11/19 11:52:34;;;;;;;11.43;2.85;;;12.60;72.30;;;;;;7408890;19;20002;-90
2022/11/19 11:55:06;;;;;;;5.93;2.53;;;12.60;72.50;;;;;;7403158;19;20010;-91
2022/11/19 11:57:36;;;;;;;8.38;2.85;;;12.70;72.60;;;;;;7404398;19;20018;-90
2022/11/19 12:00:30;;;;;;;8.82;2.85;;;12.50;72.60;;;;;;7429441;19;20017;-90
2022/11/19 12:03:03;;;;;;;7.10;2.70;;;12.60;73.40;;;;;;7409646;19;20010;-90
2022/11/19 12:05:45;;;;;;;12.40;2.95;;;12.70;72.70;;;;;;7407165;19;20011;-89
2022/11/19 12:08:25;;;;;;;5.72;2.97;;;12.80;73.00;;;;;;7411480;19;20007;-90
2022/11/19 12:11:00;;;;;;;15.85;3.40;;;12.90;72.70;;;;;;7406091;19;20022;-90
2022/11/19 12:13:55;;;;;;;8.80;3.20;;;13.10;72.30;;;;;;7398471;19;20014;-90
2022/11/19 12:16:35;;;;;;;12.38;3.08;;;13.10;72.40;;;;;;7397041;19;20018;-91
2022/11/19 12:19:19;;;;;;;6.43;2.72;;;13.20;72.20;;;;;;7396985;19;20014;-90
2022/11/19 12:21:58;;;;;;;11.07;2.85;;;13.10;71.20;;;;;;7396239;19;20037;-90
2022/11/19 12:24:51;;;;;;;8.77;2.60;;;13.20;71.90;;;;;;7393961;19;20007;-90
2022/11/19 12:27:29;;;;;;;6.80;2.33;;;13.10;71.90;;;;;;7394171;19;20015;-88
2022/11/19 12:30:05;;;;;;;11.45;2.55;;;13.10;71.20;;;;;;7411736;19;20018;-90
2022/11/19 12:33:02;;;;;;;8.68;2.13;;;13.00;71.60;;;;;;7401178;19;20071;-91
2022/11/19 12:35:43;;;;;;;11.43;2.35;;;12.90;71.90;;;;;;7403750;19;20028;-90
2022/11/19 12:38:42;;;;;;;12.10;2.80;;;12.90;73.10;;;;;;7402085;19;20014;-91
2022/11/19 12:41:38;;;;;;;7.32;2.10;;;13.00;72.40;;;;;;7401562;19;20017;-91
2022/11/19 12:44:18;;;;;;;6.47;2.15;;;13.20;72.50;;;;;;7403466;19;20010;-91
2022/11/19 12:46:57;;;;;;;10.20;3.00;;;13.40;71.70;;;;;;7403462;19;20014;-91
2022/11/19 12:50:02;;;;;;;12.82;2.20;;;13.50;71.60;;;;;;7404094;19;20018;-90
2022/11/19 12:53:10;;;;;;;11.55;2.58;;;13.50;71.10;;;;;;7401404;19;20017;-91
2022/11/19 12:55:51;;;;;;;11.07;2.75;;;13.60;71.20;;;;;;7406031;19;20019;-91
2022/11/19 12:58:30;;;;;;;9.23;2.93;;;13.70;70.70;;;;;;7401216;19;20003;-91
2022/11/19 13:01:02;;;;;;;11.90;2.65;;;13.70;70.80;;;;;;7402391;19;20034;-91
2022/11/19 13:03:40;;;;;;;;;;;13.80;70.50;;;;;;7407982;19;20016;-86
2022/11/19 13:06:19;;;;;;;6.85;2.08;;;14.00;70.70;;;;;;7432207;19;19934;-90
2022/11/19 13:08:53;;;;;;;8.45;2.38;;;14.00;69.60;;;;;;7408947;19;20026;-91
2022/11/19 13:11:25;;;;;;;6.90;2.28;;;14.10;69.50;;;;;;7397868;19;20015;-91
2022/11/19 13:14:00;;;;;;;5.93;2.17;;;13.80;68.60;;;;;;7401449;19;20010;-91
2022/11/19 13:16:32;;;;;;;6.13;2.05;;;13.80;69.00;;;;;;7399209;19;20027;-91
2022/11/19 13:19:13;;;;;;;4.43;2.03;;;13.90;68.30;;;;;;7397398;19;20006;-92
2022/11/19 13:21:49;;;;;;;8.35;2.03;;;14.00;68.00;;;;;;7399450;19;20023;-91
2022/11/19 13:24:32;;;;;;;5.70;1.83;;;14.20;67.50;;;;;;7401067;19;20031;-89
2022/11/19 13:27:06;;;;;;;7.03;2.10;;;14.10;67.10;;;;;;7416807;19;20035;-91
2022/11/19 13:29:41;;;;;;;6.90;2.30;;;14.10;67.00;;;;;;7399404;19;20015;-91
2022/11/19 13:32:17;;;;;;;11.82;2.40;;;13.90;67.40;;;;;;7408994;19;20025;-90
2022/11/19 13:34:56;;;;;;;5.63;1.50;;;13.90;67.50;;;;;;7411988;19;20043;-91
2022/11/19 13:37:40;;;;;;;11.15;2.05;;;14.00;67.60;;;;;;7401479;19;20006;-91